Time;durP1;ratioP1;P1;durP2;ratioP2;P2;SDS_P1;SDS_P2;PMS_P1;PMS_P2;Temp;Humidity;BMP_temperature;BMP_pressure;BME280_temperature;BME280_humidity;BME280_pressure;Samples;Min_cycle;Max_cycle;Signal;HPM_P1;HPM_P2
2022/04/08 00:01:59;;;;;;;61.40;3.10;;;;;;;;;;5095003;28;20457;-73
2022/04/08 00:04:26;;;;;;;59.70;3.23;;;;;;;;;;5094580;28;20827;-75
2022/04/08 00:06:53;;;;;;;60.20;3.40;;;;;;;;;;5094572;28;20460;-72
2022/04/08 00:09:20;;;;;;;61.93;3.33;;;;;;;;;;5094138;28;20484;-75
2022/04/08 00:11:47;;;;;;;64.90;3.20;;;;;;;;;;5094634;28;20453;-74
2022/04/08 00:14:14;;;;;;;62.53;3.60;;;;;;;;;;5094520;28;20544;-75
2022/04/08 00:16:43;;;;;;;62.73;3.33;;;;;;;;;;5094881;28;20485;-75
2022/04/08 00:19:10;;;;;;;59.17;3.17;;;;;;;;;;5094904;28;20504;-74
2022/04/08 00:21:37;;;;;;;61.67;3.30;;;;;;;;;;5096225;28;20472;-75
2022/04/08 00:24:05;;;;;;;59.57;3.63;;;;;;;;;;5095842;28;20449;-74
2022/04/08 00:26:32;;;;;;;60.37;3.60;;;;;;;;;;5076123;28;20458;-74
2022/04/08 00:28:59;;;;;;;61.27;3.30;;;;;;;;;;5073253;28;20469;-74
2022/04/08 00:31:27;;;;;;;60.80;3.00;;;;;;;;;;5074109;28;20452;-75
2022/04/08 00:33:55;;;;;;;61.23;3.63;;;;;;;;;;5074066;28;20458;-73
2022/04/08 00:36:23;;;;;;;60.50;3.17;;;;;;;;;;5073984;28;20454;-74
2022/04/08 00:38:50;;;;;;;58.77;3.13;;;;;;;;;;5073067;28;20569;-73
2022/04/08 00:41:17;;;;;;;59.90;3.00;;;;;;;;;;5073583;28;20454;-74
2022/04/08 00:43:44;;;;;;;62.30;3.47;;;;;;;;;;5073676;28;20460;-73
2022/04/08 00:46:11;;;;;;;61.47;3.50;;;;;;;;;;5073545;28;20455;-74
2022/04/08 00:48:38;;;;;;;60.63;2.90;;;;;;;;;;5072774;28;20484;-74
2022/04/08 00:51:08;;;;;;;64.17;3.77;;;;;;;;;;5073669;28;20909;-73
2022/04/08 00:53:36;;;;;;;61.57;3.17;;;;;;;;;;5073179;28;20455;-74
2022/04/08 00:56:04;;;;;;;60.40;3.10;;;;;;;;;;5072648;28;20450;-74
2022/04/08 00:58:32;;;;;;;61.07;3.50;;;;;;;;;;5084395;28;20497;-73
2022/04/08 01:00:59;;;;;;;62.20;3.73;;;;;;;;;;5093740;28;20546;-74
2022/04/08 01:03:26;;;;;;;61.10;3.40;;;;;;;;;;5093476;28;20945;-74
2022/04/08 01:05:53;;;;;;;61.63;3.70;;;;;;;;;;5093638;28;20460;-74
2022/04/08 01:08:22;;;;;;;59.43;3.60;;;;;;;;;;5092519;28;20565;-74
2022/04/08 01:10:50;;;;;;;61.13;3.20;;;;;;;;;;5093348;28;20548;-74
2022/04/08 01:13:17;;;;;;;61.77;3.13;;;;;;;;;;5093448;28;20453;-74
2022/04/08 01:15:44;;;;;;;60.30;3.17;;;;;;;;;;5093409;28;20800;-75
2022/04/08 01:18:12;;;;;;;64.10;3.73;;;;;;;;;;5092553;28;20889;-75
2022/04/08 01:20:39;;;;;;;62.40;3.50;;;;;;;;;;5093178;28;21017;-74
2022/04/08 01:23:06;;;;;;;60.60;3.50;;;;;;;;;;5094356;28;20452;-74
2022/04/08 01:25:35;;;;;;;60.47;3.50;;;;;;;;;;5093520;28;20448;-75
2022/04/08 01:28:02;;;;;;;64.27;4.30;;;;;;;;;;5091749;28;20465;-74
2022/04/08 01:30:29;;;;;;;66.13;3.10;;;;;;;;;;5090125;28;20445;-73
2022/04/08 01:32:56;;;;;;;61.70;3.67;;;;;;;;;;5092955;28;20449;-74
2022/04/08 01:35:23;;;;;;;62.00;4.20;;;;;;;;;;5092645;28;20467;-74
2022/04/08 01:37:51;;;;;;;62.70;3.47;;;;;;;;;;5092317;28;20469;-74
2022/04/08 01:40:18;;;;;;;65.80;3.77;;;;;;;;;;5093657;28;20483;-73
2022/04/08 01:42:46;;;;;;;61.47;3.77;;;;;;;;;;5096057;28;20445;-74
2022/04/08 01:45:14;;;;;;;59.20;3.20;;;;;;;;;;5095379;28;20453;-73
2022/04/08 01:47:41;;;;;;;59.90;2.90;;;;;;;;;;5095343;28;20483;-73
2022/04/08 01:50:09;;;;;;;58.90;2.70;;;;;;;;;;5094872;28;20472;-73
2022/04/08 01:52:36;;;;;;;66.00;3.40;;;;;;;;;;5094932;28;20875;-73
2022/04/08 01:55:05;;;;;;;60.20;3.47;;;;;;;;;;5089258;28;20456;-74
2022/04/08 01:57:33;;;;;;;63.90;2.90;;;;;;;;;;5091994;28;20467;-72
2022/04/08 02:00:02;;;;;;;63.10;3.83;;;;;;;;;;5091690;28;20513;-72
2022/04/08 02:02:30;;;;;;;62.50;3.30;;;;;;;;;;5074685;28;20450;-73
2022/04/08 02:04:57;;;;;;;60.07;4.03;;;;;;;;;;5072210;28;20523;-73
2022/04/08 02:07:24;;;;;;;59.70;3.40;;;;;;;;;;5071436;28;20820;-73
2022/04/08 02:09:51;;;;;;;60.33;3.50;;;;;;;;;;5071768;28;20449;-74
2022/04/08 02:12:18;;;;;;;62.50;3.07;;;;;;;;;;5072204;28;20456;-74
2022/04/08 02:14:45;;;;;;;64.07;3.40;;;;;;;;;;5072152;28;20537;-74
2022/04/08 02:17:14;;;;;;;61.27;3.30;;;;;;;;;;5071236;28;20476;-73
2022/04/08 02:19:41;;;;;;;61.57;3.23;;;;;;;;;;5071883;28;21018;-74
2022/04/08 02:22:08;;;;;;;61.27;3.17;;;;;;;;;;5071986;28;20445;-73
2022/04/08 02:24:36;;;;;;;59.87;2.70;;;;;;;;;;5072104;28;20541;-75
2022/04/08 02:27:05;;;;;;;64.13;3.93;;;;;;;;;;5072175;28;20508;-74
2022/04/08 02:29:32;;;;;;;60.20;3.30;;;;;;;;;;5071863;28;20481;-75
2022/04/08 02:31:59;;;;;;;62.50;3.30;;;;;;;;;;5071205;28;20836;-75
2022/04/08 02:34:27;;;;;;;59.73;3.30;;;;;;;;;;5081330;28;20449;-73
2022/04/08 02:36:55;;;;;;;60.60;2.77;;;;;;;;;;5091991;28;20772;-75
2022/04/08 02:39:22;;;;;;;63.87;3.33;;;;;;;;;;5091431;28;20485;-74
2022/04/08 02:41:49;;;;;;;62.40;3.67;;;;;;;;;;5092155;28;20540;-73
2022/04/08 02:44:16;;;;;;;60.63;3.70;;;;;;;;;;5091758;28;20457;-74
2022/04/08 02:46:43;;;;;;;60.97;4.30;;;;;;;;;;5093493;28;20455;-72
2022/04/08 02:49:10;;;;;;;62.60;3.40;;;;;;;;;;5091333;28;20484;-73
2022/04/08 02:51:39;;;;;;;60.27;3.00;;;;;;;;;;5091823;28;20847;-73
2022/04/08 02:54:06;;;;;;;60.10;3.13;;;;;;;;;;5092127;28;20540;-74
2022/04/08 02:56:33;;;;;;;61.27;3.10;;;;;;;;;;5091955;28;20454;-74
2022/04/08 02:59:01;;;;;;;62.40;3.70;;;;;;;;;;5092471;28;20471;-74
2022/04/08 03:01:28;;;;;;;60.47;3.37;;;;;;;;;;5094165;28;20459;-74
2022/04/08 03:03:55;;;;;;;64.50;3.90;;;;;;;;;;5092026;28;20544;-75
2022/04/08 03:06:22;;;;;;;61.43;2.90;;;;;;;;;;5090843;28;21006;-74
2022/04/08 03:08:50;;;;;;;58.50;3.07;;;;;;;;;;5092455;28;20468;-74
2022/04/08 03:11:18;;;;;;;60.30;3.50;;;;;;;;;;5094152;28;20495;-74
2022/04/08 03:13:45;;;;;;;61.40;3.50;;;;;;;;;;5094080;28;20457;-74
2022/04/08 03:16:12;;;;;;;60.93;2.90;;;;;;;;;;5094982;28;20459;-72
2022/04/08 03:18:39;;;;;;;63.10;3.70;;;;;;;;;;5093559;28;20553;-74
2022/04/08 03:21:06;;;;;;;61.73;3.40;;;;;;;;;;5094710;28;20494;-72
2022/04/08 03:23:33;;;;;;;62.90;3.50;;;;;;;;;;5094110;28;20452;-74
2022/04/08 03:26:02;;;;;;;60.90;3.50;;;;;;;;;;5093941;28;20547;-73
2022/04/08 03:28:31;;;;;;;60.67;3.50;;;;;;;;;;5093550;28;20473;-73
2022/04/08 03:30:58;;;;;;;66.83;3.60;;;;;;;;;;5093721;28;20441;-74
2022/04/08 03:33:25;;;;;;;59.30;3.70;;;;;;;;;;5094046;28;20453;-74
2022/04/08 03:35:52;;;;;;;61.50;3.67;;;;;;;;;;5093559;28;20544;-74
2022/04/08 03:38:19;;;;;;;61.33;3.77;;;;;;;;;;5090262;28;20560;-73
2022/04/08 03:40:48;;;;;;;62.07;3.60;;;;;;;;;;5094478;28;20495;-72
2022/04/08 03:43:16;;;;;;;58.30;3.10;;;;;;;;;;5094332;28;20529;-73
2022/04/08 03:45:43;;;;;;;59.23;3.37;;;;;;;;;;5093917;28;20453;-74
2022/04/08 03:48:10;;;;;;;70.60;3.30;;;;;;;;;;5093586;28;20464;-74
2022/04/08 03:50:38;;;;;;;61.13;3.33;;;;;;;;;;5095335;28;20523;-74
2022/04/08 03:53:06;;;;;;;62.80;3.47;;;;;;;;;;5098254;28;20948;-73
2022/04/08 03:55:33;;;;;;;62.33;4.07;;;;;;;;;;5097918;28;20451;-74
2022/04/08 03:58:00;;;;;;;60.40;3.10;;;;;;;;;;5097397;28;20507;-74
2022/04/08 04:00:29;;;;;;;61.50;3.10;;;;;;;;;;5098157;28;20489;-74
2022/04/08 04:02:56;;;;;;;60.20;2.80;;;;;;;;;;5098206;28;20520;-74
2022/04/08 04:05:23;;;;;;;62.87;3.40;;;;;;;;;;5097344;28;20459;-72
2022/04/08 04:07:50;;;;;;;59.97;3.00;;;;;;;;;;5098482;28;20904;-75
2022/04/08 04:10:17;;;;;;;61.13;2.97;;;;;;;;;;5093150;28;21002;-73
2022/04/08 04:12:45;;;;;;;65.00;3.73;;;;;;;;;;5094633;28;20460;-73
2022/04/08 04:15:13;;;;;;;63.27;3.40;;;;;;;;;;5094900;28;20448;-73
2022/04/08 04:17:42;;;;;;;65.10;3.90;;;;;;;;;;5093951;28;20469;-73
2022/04/08 04:20:10;;;;;;;59.60;3.10;;;;;;;;;;5094677;28;20580;-74
2022/04/08 04:22:37;;;;;;;60.30;3.17;;;;;;;;;;5094759;28;20534;-73
2022/04/08 04:25:04;;;;;;;60.47;3.07;;;;;;;;;;5094966;28;20561;-73
2022/04/08 04:27:31;;;;;;;61.20;3.27;;;;;;;;;;5093586;28;20476;-74
2022/04/08 04:29:58;;;;;;;62.87;3.33;;;;;;;;;;5094584;28;20936;-74
2022/04/08 04:32:26;;;;;;;63.45;3.13;;;;;;;;;;5094461;28;20531;-73
2022/04/08 04:34:54;;;;;;;65.07;3.77;;;;;;;;;;5094443;28;20296;-74
2022/04/08 04:37:21;;;;;;;59.57;2.90;;;;;;;;;;5093555;28;20479;-74
2022/04/08 04:39:48;;;;;;;62.67;3.07;;;;;;;;;;5090702;28;20508;-73
2022/04/08 04:42:15;;;;;;;61.50;3.03;;;;;;;;;;5093897;28;20458;-74
2022/04/08 04:44:43;;;;;;;59.07;3.10;;;;;;;;;;5094152;28;20829;-74
2022/04/08 04:47:10;;;;;;;61.47;3.43;;;;;;;;;;5093130;28;20456;-69
2022/04/08 04:49:37;;;;;;;60.80;3.45;;;;;;;;;;5094055;28;20460;-74
2022/04/08 04:52:06;;;;;;;59.60;3.27;;;;;;;;;;5093958;28;20280;-74
2022/04/08 04:54:33;;;;;;;61.40;4.00;;;;;;;;;;5093783;28;20448;-73
2022/04/08 04:57:00;;;;;;;64.43;3.70;;;;;;;;;;5093974;28;20312;-74
2022/04/08 04:59:27;;;;;;;65.65;3.55;;;;;;;;;;5092992;28;21037;-75
2022/04/08 05:01:55;;;;;;;62.72;3.25;;;;;;;;;;5093618;28;20211;-74
2022/04/08 05:04:22;;;;;;;61.77;3.90;;;;;;;;;;5092444;28;20213;-73
2022/04/08 05:06:49;;;;;;;60.60;3.47;;;;;;;;;;5093207;28;20459;-72
2022/04/08 05:09:17;;;;;;;64.03;3.47;;;;;;;;;;5093358;28;20468;-75
2022/04/08 05:11:44;;;;;;;66.17;3.53;;;;;;;;;;5091872;28;20449;-74
2022/04/08 05:14:12;;;;;;;59.07;3.10;;;;;;;;;;5093997;28;20528;-74
2022/04/08 05:16:39;;;;;;;60.23;3.20;;;;;;;;;;5095803;28;20472;-77
2022/04/08 05:19:06;;;;;;;65.00;3.97;;;;;;;;;;5096446;28;20472;-74
2022/04/08 05:21:34;;;;;;;64.67;3.30;;;;;;;;;;5093717;28;20486;-74
2022/04/08 05:24:01;;;;;;;62.80;3.17;;;;;;;;;;5093767;28;20835;-75
2022/04/08 05:26:29;;;;;;;59.07;2.80;;;;;;;;;;5093193;28;20969;-74
2022/04/08 05:28:56;;;;;;;61.37;3.30;;;;;;;;;;5092456;28;20473;-74
2022/04/08 05:31:24;;;;;;;59.80;3.30;;;;;;;;;;5093025;28;20445;-72
2022/04/08 05:33:51;;;;;;;64.60;3.60;;;;;;;;;;5093386;28;20547;-74
2022/04/08 05:36:18;;;;;;;69.83;3.90;;;;;;;;;;5097653;28;20551;-72
2022/04/08 05:38:45;;;;;;;61.50;3.27;;;;;;;;;;5095041;28;20472;-75
2022/04/08 05:41:13;;;;;;;61.13;3.50;;;;;;;;;;5097068;28;20490;-74
2022/04/08 05:43:44;;;;;;;61.43;3.87;;;;;;;;;;5088575;28;20469;-75
2022/04/08 05:46:11;;;;;;;62.80;3.00;;;;;;;;;;5076126;28;20468;-75
2022/04/08 05:48:38;;;;;;;62.37;3.57;;;;;;;;;;5072663;28;20489;-74
2022/04/08 05:51:05;;;;;;;60.00;3.40;;;;;;;;;;5072344;28;20477;-75
2022/04/08 05:53:33;;;;;;;59.47;2.83;;;;;;;;;;5072293;28;20448;-74
2022/04/08 05:56:02;;;;;;;59.70;3.17;;;;;;;;;;5072461;28;20536;-75
2022/04/08 05:58:29;;;;;;;59.70;3.00;;;;;;;;;;5071725;28;20470;-74
2022/04/08 06:00:57;;;;;;;63.50;3.20;;;;;;;;;;5072124;28;20481;-74
2022/04/08 06:03:25;;;;;;;61.50;3.80;;;;;;;;;;5071933;28;20477;-74
2022/04/08 06:05:53;;;;;;;62.23;3.30;;;;;;;;;;5072234;28;20536;-75
2022/04/08 06:08:20;;;;;;;60.47;3.30;;;;;;;;;;5071609;28;20845;-75
2022/04/08 06:10:47;;;;;;;62.97;4.50;;;;;;;;;;5072817;28;20483;-74
2022/04/08 06:13:16;;;;;;;61.87;3.30;;;;;;;;;;5072399;28;20809;-74
2022/04/08 06:15:43;;;;;;;61.07;2.70;;;;;;;;;;5068628;28;20519;-73
2022/04/08 06:18:15;;;;;;;61.37;3.10;;;;;;;;;;5072172;28;20471;-75
2022/04/08 06:20:42;;;;;;;59.50;2.80;;;;;;;;;;5072376;28;20485;-74
2022/04/08 06:23:10;;;;;;;65.23;3.37;;;;;;;;;;5071923;28;20483;-74
2022/04/08 06:25:37;;;;;;;61.87;2.90;;;;;;;;;;5072037;28;20470;-73
2022/04/08 06:28:05;;;;;;;59.47;3.10;;;;;;;;;;5072141;28;20585;-74
2022/04/08 06:30:33;;;;;;;64.50;3.90;;;;;;;;;;5072144;28;20473;-74
2022/04/08 06:33:00;;;;;;;63.90;3.40;;;;;;;;;;5069759;28;20515;-74
2022/04/08 06:35:29;;;;;;;60.67;3.47;;;;;;;;;;5072209;28;20463;-73
2022/04/08 06:38:00;;;;;;;62.90;3.10;;;;;;;;;;5074295;28;20507;-74
2022/04/08 06:40:27;;;;;;;59.97;3.47;;;;;;;;;;5072226;28;20863;-74
2022/04/08 06:42:55;;;;;;;60.70;3.00;;;;;;;;;;5073901;28;20218;-70
2022/04/08 06:45:23;;;;;;;59.23;3.17;;;;;;;;;;5072977;28;20461;-74
2022/04/08 06:47:51;;;;;;;58.87;2.83;;;;;;;;;;5071750;28;20472;-75
2022/04/08 06:50:18;;;;;;;58.60;2.90;;;;;;;;;;5072057;28;20961;-74
2022/04/08 06:52:47;;;;;;;62.10;3.50;;;;;;;;;;5072099;28;20455;-75
2022/04/08 06:55:14;;;;;;;66.00;3.30;;;;;;;;;;5072326;28;20484;-74
2022/04/08 06:57:42;;;;;;;58.60;2.70;;;;;;;;;;5072158;28;20566;-75
2022/04/08 07:00:10;;;;;;;60.37;3.20;;;;;;;;;;5073484;28;20469;-75
2022/04/08 07:02:38;;;;;;;64.10;3.17;;;;;;;;;;5075499;28;20457;-73
2022/04/08 07:05:06;;;;;;;59.57;3.00;;;;;;;;;;5094412;28;20458;-73
2022/04/08 07:07:33;;;;;;;60.50;3.40;;;;;;;;;;5093452;28;20907;-74
2022/04/08 07:10:02;;;;;;;62.08;3.33;;;;;;;;;;5094701;28;20473;-73
2022/04/08 07:12:29;;;;;;;63.97;3.07;;;;;;;;;;5096913;28;20238;-73
2022/04/08 07:14:57;;;;;;;62.73;3.87;;;;;;;;;;5092606;28;20962;-73
2022/04/08 07:17:28;;;;;;;64.40;3.40;;;;;;;;;;5093316;28;20895;-75
2022/04/08 07:19:55;;;;;;;59.70;2.97;;;;;;;;;;5093308;28;20512;-73
2022/04/08 07:22:23;;;;;;;60.13;3.20;;;;;;;;;;5092919;28;20334;-74
2022/04/08 07:24:50;;;;;;;61.50;3.63;;;;;;;;;;5076308;28;20218;-74
2022/04/08 07:27:19;;;;;;;60.42;3.58;;;;;;;;;;5072553;28;20480;-74
2022/04/08 07:29:46;;;;;;;59.47;3.40;;;;;;;;;;5075093;28;20213;-75
2022/04/08 07:32:20;;;;;;;60.45;3.60;;;;;;;;;;5074971;28;20294;-75
2022/04/08 07:34:48;;;;;;;60.50;3.30;;;;;;;;;;5074714;28;20221;-75
2022/04/08 07:37:15;;;;;;;60.65;3.30;;;;;;;;;;5074069;28;20427;-76
2022/04/08 07:39:43;;;;;;;61.30;3.55;;;;;;;;;;5075069;28;20301;-76
2022/04/08 07:42:10;;;;;;;63.00;3.22;;;;;;;;;;5075009;28;20268;-75
2022/04/08 07:44:38;;;;;;;62.35;3.80;;;;;;;;;;5074857;28;20530;-76
2022/04/08 07:47:05;;;;;;;59.75;3.30;;;;;;;;;;5074616;28;20299;-76
2022/04/08 07:49:33;;;;;;;61.65;3.60;;;;;;;;;;5074299;28;20693;-75
2022/04/08 07:52:00;;;;;;;59.55;3.40;;;;;;;;;;5075116;28;20197;-75
2022/04/08 07:54:27;;;;;;;59.47;3.30;;;;;;;;;;5074653;28;20305;-75
2022/04/08 07:56:54;;;;;;;62.05;3.63;;;;;;;;;;5071893;28;20205;-76
2022/04/08 07:59:21;;;;;;;61.40;3.55;;;;;;;;;;5074127;28;20293;-75
2022/04/08 08:01:50;;;;;;;59.90;3.55;;;;;;;;;;5074525;28;20593;-75
2022/04/08 08:04:17;;;;;;;59.97;2.90;;;;;;;;;;5074367;28;20202;-76
2022/04/08 08:06:44;;;;;;;59.88;2.90;;;;;;;;;;5074659;28;20971;-76
2022/04/08 08:09:12;;;;;;;66.35;3.42;;;;;;;;;;5073823;28;20230;-76
2022/04/08 08:11:39;;;;;;;59.67;3.30;;;;;;;;;;5074917;28;20570;-75
2022/04/08 08:14:06;;;;;;;62.63;2.95;;;;;;;;;;5074358;28;20834;-75
2022/04/08 08:16:34;;;;;;;60.63;3.35;;;;;;;;;;5074026;28;20293;-76
2022/04/08 08:19:03;;;;;;;62.45;3.63;;;;;;;;;;5074071;28;20222;-75
2022/04/08 08:21:30;;;;;;;58.60;3.00;;;;;;;;;;5074364;28;20223;-72
2022/04/08 08:23:57;;;;;;;62.67;3.25;;;;;;;;;;5074078;28;20490;-75
2022/04/08 08:26:24;;;;;;;58.63;3.03;;;;;;;;;;5073127;28;20294;-74
2022/04/08 08:28:52;;;;;;;59.37;3.30;;;;;;;;;;5088103;28;20235;-75
2022/04/08 08:31:19;;;;;;;58.87;3.23;;;;;;;;;;5094220;28;20514;-75
2022/04/08 08:33:46;;;;;;;58.60;3.13;;;;;;;;;;5094293;28;20452;-75
2022/04/08 08:36:14;;;;;;;59.87;3.13;;;;;;;;;;5094568;28;20455;-75
2022/04/08 08:38:42;;;;;;;59.35;3.20;;;;;;;;;;5093446;28;20475;-75
2022/04/08 08:41:09;;;;;;;60.47;3.40;;;;;;;;;;5094153;28;20574;-75
2022/04/08 08:43:37;;;;;;;61.77;3.60;;;;;;;;;;5093728;28;20601;-75
2022/04/08 08:46:04;;;;;;;59.97;3.15;;;;;;;;;;5094049;28;20456;-75
2022/04/08 08:48:31;;;;;;;62.58;3.58;;;;;;;;;;5093315;28;20627;-75
2022/04/08 08:51:00;;;;;;;59.30;3.35;;;;;;;;;;5094555;28;20326;-75
2022/04/08 08:53:30;;;;;;;59.20;3.20;;;;;;;;;;5094280;28;20211;-76
2022/04/08 08:55:58;;;;;;;61.23;3.10;;;;;;;;;;5094063;28;20457;-75
2022/04/08 08:58:25;;;;;;;60.80;3.50;;;;;;;;;;5089076;28;20470;-76
2022/04/08 09:00:52;;;;;;;62.43;3.83;;;;;;;;;;5074539;28;20538;-75
2022/04/08 09:03:19;;;;;;;60.20;3.20;;;;;;;;;;5074505;28;20472;-75
2022/04/08 09:05:52;;;;;;;58.57;2.80;;;;;;;;;;5074647;28;20454;-76
2022/04/08 09:08:19;;;;;;;59.40;3.17;;;;;;;;;;5073278;28;20478;-76
2022/04/08 09:10:48;;;;;;;58.47;2.65;;;;;;;;;;5073665;28;20536;-76
2022/04/08 09:13:18;;;;;;;59.90;2.80;;;;;;;;;;5073870;28;20241;-74
2022/04/08 09:15:53;;;;;;;59.65;2.80;;;;;;;;;;5073780;28;20210;-76
2022/04/08 09:18:20;;;;;;;58.97;3.20;;;;;;;;;;5072897;28;20226;-75
2022/04/08 09:20:49;;;;;;;60.92;3.58;;;;;;;;;;5073592;28;20214;-75
2022/04/08 09:23:17;;;;;;;59.92;3.35;;;;;;;;;;5073593;28;20232;-74
2022/04/08 09:25:45;;;;;;;59.83;3.05;;;;;;;;;;5073958;28;20208;-75
2022/04/08 09:28:15;;;;;;;58.67;3.00;;;;;;;;;;5072860;28;20229;-75
2022/04/08 09:30:42;;;;;;;63.78;3.30;;;;;;;;;;5070319;28;20228;-75
2022/04/08 09:33:13;;;;;;;60.50;3.30;;;;;;;;;;5073314;28;20294;-76
2022/04/08 09:35:41;;;;;;;61.15;3.25;;;;;;;;;;5073010;28;20448;-75
2022/04/08 09:38:08;;;;;;;59.33;3.20;;;;;;;;;;5072426;28;20602;-76
2022/04/08 09:40:36;;;;;;;63.43;5.20;;;;;;;;;;5073074;28;20885;-75
2022/04/08 09:43:04;;;;;;;60.47;3.63;;;;;;;;;;5072533;28;20488;-76
2022/04/08 09:45:33;;;;;;;66.53;3.40;;;;;;;;;;5072524;28;20447;-75
2022/04/08 09:48:00;;;;;;;59.60;3.50;;;;;;;;;;5071761;28;20485;-75
2022/04/08 09:50:27;;;;;;;61.70;3.50;;;;;;;;;;5071617;28;21021;-75
2022/04/08 09:52:54;;;;;;;59.83;3.20;;;;;;;;;;5072482;28;20858;-75
2022/04/08 09:55:23;;;;;;;62.33;4.10;;;;;;;;;;5072411;28;20595;-75
2022/04/08 09:57:52;;;;;;;59.67;4.00;;;;;;;;;;5071373;28;20974;-75
2022/04/08 10:00:20;;;;;;;62.07;4.00;;;;;;;;;;5071268;28;20452;-74
2022/04/08 10:02:50;;;;;;;58.73;3.60;;;;;;;;;;5082443;28;20929;-74
2022/04/08 10:05:17;;;;;;;59.90;4.13;;;;;;;;;;5092618;28;20452;-74
2022/04/08 10:07:47;;;;;;;66.63;7.90;;;;;;;;;;5091664;28;20225;-74
2022/04/08 10:10:17;;;;;;;63.53;3.77;;;;;;;;;;5092407;28;20455;-75
2022/04/08 10:12:48;;;;;;;61.23;4.03;;;;;;;;;;5092150;28;20543;-76
2022/04/08 10:15:17;;;;;;;63.53;3.60;;;;;;;;;;5092152;28;20827;-75
2022/04/08 10:17:45;;;;;;;61.40;3.80;;;;;;;;;;5091391;28;20556;-75
2022/04/08 10:20:20;;;;;;;66.13;6.00;;;;;;;;;;5092170;28;20451;-75
2022/04/08 10:22:49;;;;;;;59.23;3.43;;;;;;;;;;5091941;28;20563;-75
2022/04/08 10:25:17;;;;;;;61.20;3.87;;;;;;;;;;5092214;28;20881;-74
2022/04/08 10:27:44;;;;;;;60.63;3.40;;;;;;;;;;5091074;28;20481;-74
2022/04/08 10:30:12;;;;;;;60.28;4.30;;;;;;;;;;5092132;28;20445;-73
2022/04/08 10:32:40;;;;;;;64.90;7.50;;;;;;;;;;5090954;28;20627;-72
2022/04/08 10:35:17;;;;;;;61.63;4.67;;;;;;;;;;5070360;28;20983;-75
2022/04/08 10:37:56;;;;;;;58.43;2.77;;;;;;;;;;5070948;28;21023;-75
2022/04/08 10:40:29;;;;;;;59.23;2.70;;;;;;;;;;5071659;28;20548;-73
2022/04/08 10:43:00;;;;;;;58.97;3.20;;;;;;;;;;5071919;28;20580;-75
2022/04/08 10:45:27;;;;;;;59.00;3.57;;;;;;;;;;5071753;28;20450;-75
2022/04/08 10:47:56;;;;;;;60.63;3.50;;;;;;;;;;5070991;28;20554;-74
2022/04/08 10:50:27;;;;;;;58.07;2.70;;;;;;;;;;5071489;28;20556;-75
2022/04/08 10:53:08;;;;;;;61.40;3.10;;;;;;;;;;5071697;28;20440;-74
2022/04/08 10:55:49;;;;;;;61.10;4.73;;;;;;;;;;5071761;28;20450;-74
2022/04/08 10:58:16;;;;;;;58.70;2.80;;;;;;;;;;5070807;28;20926;-74
2022/04/08 11:00:44;;;;;;;58.70;3.17;;;;;;;;;;5071369;28;20453;-74
2022/04/08 11:03:11;;;;;;;64.40;6.00;;;;;;;;;;5074063;28;20479;-74
2022/04/08 11:05:39;;;;;;;68.10;8.77;;;;;;;;;;5084824;28;20460;-74
2022/04/08 11:08:08;;;;;;;68.27;9.67;;;;;;;;;;5095251;28;20477;-74
2022/04/08 11:10:35;;;;;;;62.07;5.37;;;;;;;;;;5095371;28;20442;-74
2022/04/08 11:13:02;;;;;;;62.77;6.50;;;;;;;;;;5095581;28;21002;-74
2022/04/08 11:15:31;;;;;;;63.20;5.33;;;;;;;;;;5095685;28;20452;-74
2022/04/08 11:18:00;;;;;;;60.40;3.87;;;;;;;;;;5094756;28;20560;-75
2022/04/08 11:20:28;;;;;;;63.40;4.60;;;;;;;;;;5095601;28;20734;-74
2022/04/08 11:22:55;;;;;;;63.07;5.03;;;;;;;;;;5095466;28;20485;-74
2022/04/08 11:25:24;;;;;;;59.00;3.40;;;;;;;;;;5095746;28;20454;-75
2022/04/08 11:28:02;;;;;;;61.97;4.70;;;;;;;;;;5094723;28;20471;-74
2022/04/08 11:30:30;;;;;;;59.60;3.40;;;;;;;;;;5095302;28;20539;-73
2022/04/08 11:32:57;;;;;;;58.87;3.40;;;;;;;;;;5095365;28;20440;-74
2022/04/08 11:35:28;;;;;;;59.90;3.23;;;;;;;;;;5095232;28;20983;-74
2022/04/08 11:37:55;;;;;;;58.30;2.80;;;;;;;;;;5091513;28;20559;-73
2022/04/08 11:40:23;;;;;;;58.97;3.40;;;;;;;;;;5095226;28;20939;-74
2022/04/08 11:42:51;;;;;;;58.50;2.87;;;;;;;;;;5094805;28;20826;-74
2022/04/08 11:45:18;;;;;;;60.73;3.00;;;;;;;;;;5095508;28;20803;-75
2022/04/08 11:47:49;;;;;;;59.00;2.90;;;;;;;;;;5094355;28;20552;-74
2022/04/08 11:50:24;;;;;;;58.87;3.00;;;;;;;;;;5094995;28;20472;-74
2022/04/08 11:52:55;;;;;;;58.27;2.70;;;;;;;;;;5094854;28;20870;-74
2022/04/08 11:55:25;;;;;;;59.87;3.13;;;;;;;;;;5094712;28;20839;-74
2022/04/08 11:57:55;;;;;;;58.07;2.90;;;;;;;;;;5094392;28;20826;-75
2022/04/08 12:00:26;;;;;;;61.40;3.20;;;;;;;;;;5094883;28;20537;-73
2022/04/08 12:02:53;;;;;;;59.80;3.00;;;;;;;;;;5094492;28;20481;-74
2022/04/08 12:05:24;;;;;;;59.43;3.00;;;;;;;;;;5094729;28;21001;-74
2022/04/08 12:07:52;;;;;;;61.10;3.13;;;;;;;;;;5092685;28;20988;-74
2022/04/08 12:10:20;;;;;;;60.83;3.27;;;;;;;;;;5091196;28;20463;-74
2022/04/08 12:12:47;;;;;;;62.13;3.83;;;;;;;;;;5094029;28;20930;-74
2022/04/08 12:15:16;;;;;;;60.00;3.00;;;;;;;;;;5094457;28;20987;-74
2022/04/08 12:17:44;;;;;;;58.10;2.80;;;;;;;;;;5093691;28;21007;-74
2022/04/08 12:20:15;;;;;;;58.60;3.10;;;;;;;;;;5094383;28;20449;-74
2022/04/08 12:22:42;;;;;;;58.87;3.53;;;;;;;;;;5094294;28;20492;-75
2022/04/08 12:25:09;;;;;;;58.47;3.13;;;;;;;;;;5094288;28;20448;-73
2022/04/08 12:27:36;;;;;;;59.30;3.00;;;;;;;;;;5093446;28;20546;-74
2022/04/08 12:30:08;;;;;;;58.67;3.20;;;;;;;;;;5094208;28;20454;-73
2022/04/08 12:32:37;;;;;;;58.00;3.23;;;;;;;;;;5094289;28;20449;-74
2022/04/08 12:35:06;;;;;;;58.87;3.40;;;;;;;;;;5093965;28;20461;-74
2022/04/08 12:37:34;;;;;;;59.83;3.10;;;;;;;;;;5093345;28;20518;-74
2022/04/08 12:40:01;;;;;;;59.10;3.67;;;;;;;;;;5089766;28;20511;-74
2022/04/08 12:42:28;;;;;;;58.70;3.10;;;;;;;;;;5093875;28;20480;-73
2022/04/08 12:44:55;;;;;;;58.63;3.27;;;;;;;;;;5094003;28;20446;-72
2022/04/08 12:47:22;;;;;;;66.50;7.70;;;;;;;;;;5092889;28;20980;-74
2022/04/08 12:49:51;;;;;;;59.47;3.43;;;;;;;;;;5093822;28;20455;-73
2022/04/08 12:52:18;;;;;;;58.67;3.47;;;;;;;;;;5093840;28;20451;-74
2022/04/08 12:54:45;;;;;;;61.00;3.90;;;;;;;;;;5093655;28;20546;-74
2022/04/08 12:57:12;;;;;;;59.20;3.70;;;;;;;;;;5092923;28;20449;-75
2022/04/08 12:59:39;;;;;;;59.57;3.47;;;;;;;;;;5093629;28;20540;-75
2022/04/08 13:02:07;;;;;;;59.63;3.70;;;;;;;;;;5093521;28;20540;-75
2022/04/08 13:04:35;;;;;;;59.93;3.80;;;;;;;;;;5093696;28;20456;-74
2022/04/08 13:07:07;;;;;;;58.33;3.20;;;;;;;;;;5093271;28;20967;-74
2022/04/08 13:09:34;;;;;;;59.00;3.57;;;;;;;;;;5093254;28;20528;-75
2022/04/08 13:12:01;;;;;;;58.13;3.03;;;;;;;;;;5081433;28;20450;-75
2022/04/08 13:14:28;;;;;;;59.17;3.40;;;;;;;;;;5072833;28;20453;-75
2022/04/08 13:16:55;;;;;;;59.30;3.50;;;;;;;;;;5073145;28;20536;-74
2022/04/08 13:19:22;;;;;;;59.67;3.73;;;;;;;;;;5072559;28;20451;-74
2022/04/08 13:21:50;;;;;;;58.50;2.90;;;;;;;;;;5072983;28;20541;-75
2022/04/08 13:24:19;;;;;;;58.90;3.20;;;;;;;;;;5071901;28;20524;-74
2022/04/08 13:26:46;;;;;;;60.17;3.27;;;;;;;;;;5072729;28;20454;-74
2022/04/08 13:29:13;;;;;;;58.40;3.00;;;;;;;;;;5071962;28;21001;-75
2022/04/08 13:31:41;;;;;;;58.53;3.20;;;;;;;;;;5072957;28;20456;-74
2022/04/08 13:34:08;;;;;;;59.93;4.17;;;;;;;;;;5072741;28;20447;-75
2022/04/08 13:36:35;;;;;;;59.07;3.87;;;;;;;;;;5072765;28;20528;-74
2022/04/08 13:39:02;;;;;;;59.20;3.73;;;;;;;;;;5071711;28;20474;-75
2022/04/08 13:41:30;;;;;;;60.17;4.40;;;;;;;;;;5072414;28;20456;-75
2022/04/08 13:43:58;;;;;;;60.00;3.90;;;;;;;;;;5080035;28;20830;-75
2022/04/08 13:46:25;;;;;;;58.97;3.30;;;;;;;;;;5092715;28;20960;-75
2022/04/08 13:48:54;;;;;;;59.27;3.70;;;;;;;;;;5091710;28;20997;-75
2022/04/08 13:51:21;;;;;;;58.67;3.33;;;;;;;;;;5092674;28;20443;-75
2022/04/08 13:53:48;;;;;;;59.10;3.47;;;;;;;;;;5092577;28;20964;-75
2022/04/08 13:56:15;;;;;;;58.47;3.10;;;;;;;;;;5092702;28;20548;-74
2022/04/08 13:58:44;;;;;;;59.50;3.40;;;;;;;;;;5091895;28;20462;-75
2022/04/08 14:01:11;;;;;;;59.53;3.72;;;;;;;;;;5092556;28;20300;-75
2022/04/08 14:03:39;;;;;;;62.72;4.35;;;;;;;;;;5092305;28;20229;-75
2022/04/08 14:06:06;;;;;;;60.67;4.18;;;;;;;;;;5092443;28;20296;-75
2022/04/08 14:08:33;;;;;;;60.63;3.45;;;;;;;;;;5091369;28;20778;-74
2022/04/08 14:11:02;;;;;;;59.55;4.57;;;;;;;;;;5092483;28;20306;-75
2022/04/08 14:13:29;;;;;;;61.10;3.70;;;;;;;;;;5092064;28;20204;-75
2022/04/08 14:15:58;;;;;;;60.10;4.18;;;;;;;;;;5088777;28;20287;-75
2022/04/08 14:18:25;;;;;;;59.40;3.92;;;;;;;;;;5091587;28;20232;-75
2022/04/08 14:20:52;;;;;;;60.40;3.60;;;;;;;;;;5092639;28;20292;-74
2022/04/08 14:23:20;;;;;;;61.40;3.90;;;;;;;;;;5091745;28;20486;-75
2022/04/08 14:25:48;;;;;;;62.85;4.78;;;;;;;;;;5092389;28;20206;-75
2022/04/08 14:28:15;;;;;;;59.43;4.07;;;;;;;;;;5091207;28;20710;-75
2022/04/08 14:30:43;;;;;;;61.63;4.60;;;;;;;;;;5092100;28;20456;-75
2022/04/08 14:33:12;;;;;;;59.67;4.17;;;;;;;;;;5092133;28;20202;-75
2022/04/08 14:35:39;;;;;;;59.60;4.03;;;;;;;;;;5091626;28;20544;-74